sensor_id;sensor_type;location;lat;lon;timestamp;P1;durP1;ratioP1;P2;durP2;ratioP2
31798;SDS011;18374;51.136;3.502;2023-04-25T00:01:55;13.50;;;4.18;;
31798;SDS011;18374;51.136;3.502;2023-04-25T00:04:23;15.80;;;4.35;;
31798;SDS011;18374;51.136;3.502;2023-04-25T00:06:56;28.13;;;5.55;;
31798;SDS011;18374;51.136;3.502;2023-04-25T00:09:24;21.88;;;4.28;;
31798;SDS011;18374;51.136;3.502;2023-04-25T00:11:52;17.02;;;4.28;;
31798;SDS011;18374;51.136;3.502;2023-04-25T00:14:20;13.45;;;4.10;;
31798;SDS011;18374;51.136;3.502;2023-04-25T00:16:48;17.95;;;3.70;;
31798;SDS011;18374;51.136;3.502;2023-04-25T00:19:18;18.15;;;3.50;;
31798;SDS011;18374;51.136;3.502;2023-04-25T00:21:46;15.98;;;4.15;;
31798;SDS011;18374;51.136;3.502;2023-04-25T00:24:14;16.38;;;4.22;;
31798;SDS011;18374;51.136;3.502;2023-04-25T00:26:42;15.82;;;3.67;;
31798;SDS011;18374;51.136;3.502;2023-04-25T00:29:10;19.63;;;4.28;;
31798;SDS011;18374;51.136;3.502;2023-04-25T00:31:37;12.63;;;4.07;;
31798;SDS011;18374;51.136;3.502;2023-04-25T00:34:06;17.92;;;4.03;;
31798;SDS011;18374;51.136;3.502;2023-04-25T00:36:35;20.88;;;4.70;;
31798;SDS011;18374;51.136;3.502;2023-04-25T00:39:03;17.15;;;3.35;;
31798;SDS011;18374;51.136;3.502;2023-04-25T00:41:32;17.92;;;4.55;;
31798;SDS011;18374;51.136;3.502;2023-04-25T00:44:00;12.93;;;3.83;;
31798;SDS011;18374;51.136;3.502;2023-04-25T00:46:30;10.93;;;3.55;;
31798;SDS011;18374;51.136;3.502;2023-04-25T00:48:58;14.95;;;3.70;;
31798;SDS011;18374;51.136;3.502;2023-04-25T00:51:26;19.13;;;4.18;;
31798;SDS011;18374;51.136;3.502;2023-04-25T00:53:54;14.05;;;4.32;;
31798;SDS011;18374;51.136;3.502;2023-04-25T00:56:22;20.83;;;4.30;;
31798;SDS011;18374;51.136;3.502;2023-04-25T00:58:49;14.82;;;3.85;;
31798;SDS011;18374;51.136;3.502;2023-04-25T01:01:23;17.35;;;4.28;;
31798;SDS011;18374;51.136;3.502;2023-04-25T01:03:51;13.70;;;4.20;;
31798;SDS011;18374;51.136;3.502;2023-04-25T01:06:21;24.52;;;4.28;;
31798;SDS011;18374;51.136;3.502;2023-04-25T01:08:50;18.05;;;3.88;;
31798;SDS011;18374;51.136;3.502;2023-04-25T01:11:18;17.85;;;4.47;;
31798;SDS011;18374;51.136;3.502;2023-04-25T01:13:46;16.42;;;4.05;;
31798;SDS011;18374;51.136;3.502;2023-04-25T01:16:15;15.43;;;3.72;;
31798;SDS011;18374;51.136;3.502;2023-04-25T01:18:43;16.52;;;3.80;;
31798;SDS011;18374;51.136;3.502;2023-04-25T01:21:12;16.83;;;3.15;;
31798;SDS011;18374;51.136;3.502;2023-04-25T01:23:41;21.77;;;3.78;;
31798;SDS011;18374;51.136;3.502;2023-04-25T01:26:10;20.67;;;3.83;;
31798;SDS011;18374;51.136;3.502;2023-04-25T01:28:39;14.55;;;3.83;;
31798;SDS011;18374;51.136;3.502;2023-04-25T01:31:11;23.83;;;4.03;;
31798;SDS011;18374;51.136;3.502;2023-04-25T01:33:40;10.52;;;3.95;;
31798;SDS011;18374;51.136;3.502;2023-04-25T01:36:07;14.32;;;4.20;;
31798;SDS011;18374;51.136;3.502;2023-04-25T01:38:36;13.75;;;3.78;;
31798;SDS011;18374;51.136;3.502;2023-04-25T01:41:04;18.15;;;4.30;;
31798;SDS011;18374;51.136;3.502;2023-04-25T01:43:32;14.68;;;3.40;;
31798;SDS011;18374;51.136;3.502;2023-04-25T01:46:00;15.30;;;3.42;;
31798;SDS011;18374;51.136;3.502;2023-04-25T01:48:28;16.98;;;3.95;;
31798;SDS011;18374;51.136;3.502;2023-04-25T01:50:56;18.45;;;3.97;;
31798;SDS011;18374;51.136;3.502;2023-04-25T01:53:24;17.75;;;3.83;;
31798;SDS011;18374;51.136;3.502;2023-04-25T01:55:53;12.30;;;4.07;;
31798;SDS011;18374;51.136;3.502;2023-04-25T01:58:22;20.00;;;4.05;;
31798;SDS011;18374;51.136;3.502;2023-04-25T02:01:04;13.98;;;4.28;;
31798;SDS011;18374;51.136;3.502;2023-04-25T02:03:39;18.42;;;3.90;;
31798;SDS011;18374;51.136;3.502;2023-04-25T02:06:14;20.30;;;4.63;;
31798;SDS011;18374;51.136;3.502;2023-04-25T02:08:44;16.30;;;4.40;;
31798;SDS011;18374;51.136;3.502;2023-04-25T02:11:13;17.90;;;4.55;;
31798;SDS011;18374;51.136;3.502;2023-04-25T02:13:47;15.25;;;3.58;;
31798;SDS011;18374;51.136;3.502;2023-04-25T02:16:23;15.27;;;4.90;;
31798;SDS011;18374;51.136;3.502;2023-04-25T02:18:52;11.52;;;4.60;;
31798;SDS011;18374;51.136;3.502;2023-04-25T02:21:20;12.75;;;4.47;;
31798;SDS011;18374;51.136;3.502;2023-04-25T02:23:48;10.60;;;3.53;;
31798;SDS011;18374;51.136;3.502;2023-04-25T02:26:19;12.35;;;4.18;;
31798;SDS011;18374;51.136;3.502;2023-04-25T02:28:48;12.05;;;3.63;;
31798;SDS011;18374;51.136;3.502;2023-04-25T02:31:15;13.30;;;3.92;;
31798;SDS011;18374;51.136;3.502;2023-04-25T02:33:43;10.95;;;4.00;;
31798;SDS011;18374;51.136;3.502;2023-04-25T02:36:11;14.43;;;3.72;;
31798;SDS011;18374;51.136;3.502;2023-04-25T02:38:40;14.48;;;3.78;;
31798;SDS011;18374;51.136;3.502;2023-04-25T02:41:08;10.27;;;3.55;;
31798;SDS011;18374;51.136;3.502;2023-04-25T02:43:36;20.98;;;5.72;;
31798;SDS011;18374;51.136;3.502;2023-04-25T02:46:04;12.52;;;4.10;;
31798;SDS011;18374;51.136;3.502;2023-04-25T02:48:32;17.55;;;4.97;;
31798;SDS011;18374;51.136;3.502;2023-04-25T02:50:59;19.38;;;5.18;;
31798;SDS011;18374;51.136;3.502;2023-04-25T02:53:28;14.18;;;3.83;;
31798;SDS011;18374;51.136;3.502;2023-04-25T02:55:56;15.80;;;4.63;;
31798;SDS011;18374;51.136;3.502;2023-04-25T02:58:25;18.60;;;4.00;;
31798;SDS011;18374;51.136;3.502;2023-04-25T03:00:54;14.18;;;4.10;;
31798;SDS011;18374;51.136;3.502;2023-04-25T03:03:22;13.70;;;4.13;;
31798;SDS011;18374;51.136;3.502;2023-04-25T03:05:51;12.10;;;3.42;;
31798;SDS011;18374;51.136;3.502;2023-04-25T03:08:24;5.72;;;3.08;;
31798;SDS011;18374;51.136;3.502;2023-04-25T03:10:54;11.82;;;3.60;;
31798;SDS011;18374;51.136;3.502;2023-04-25T03:13:22;10.93;;;3.72;;
31798;SDS011;18374;51.136;3.502;2023-04-25T03:15:50;14.15;;;3.88;;
31798;SDS011;18374;51.136;3.502;2023-04-25T03:18:18;16.23;;;3.83;;
31798;SDS011;18374;51.136;3.502;2023-04-25T03:20:46;13.32;;;3.90;;
31798;SDS011;18374;51.136;3.502;2023-04-25T03:23:14;21.83;;;4.57;;
31798;SDS011;18374;51.136;3.502;2023-04-25T03:25:43;17.65;;;4.35;;
31798;SDS011;18374;51.136;3.502;2023-04-25T03:28:10;11.98;;;3.88;;
31798;SDS011;18374;51.136;3.502;2023-04-25T03:30:38;15.85;;;3.70;;
31798;SDS011;18374;51.136;3.502;2023-04-25T03:33:06;12.57;;;3.70;;
31798;SDS011;18374;51.136;3.502;2023-04-25T03:35:34;13.23;;;3.40;;
31798;SDS011;18374;51.136;3.502;2023-04-25T03:38:02;13.43;;;3.83;;
31798;SDS011;18374;51.136;3.502;2023-04-25T03:40:35;15.80;;;4.15;;
31798;SDS011;18374;51.136;3.502;2023-04-25T03:43:16;16.27;;;3.75;;
31798;SDS011;18374;51.136;3.502;2023-04-25T03:45:50;12.13;;;3.72;;
31798;SDS011;18374;51.136;3.502;2023-04-25T03:48:21;8.18;;;3.40;;
31798;SDS011;18374;51.136;3.502;2023-04-25T03:50:53;11.88;;;3.67;;
31798;SDS011;18374;51.136;3.502;2023-04-25T03:53:22;9.45;;;3.40;;
31798;SDS011;18374;51.136;3.502;2023-04-25T03:56:28;16.25;;;3.80;;
31798;SDS011;18374;51.136;3.502;2023-04-25T03:59:04;15.43;;;3.72;;
31798;SDS011;18374;51.136;3.502;2023-04-25T04:01:32;14.75;;;3.65;;
31798;SDS011;18374;51.136;3.502;2023-04-25T04:04:00;14.20;;;4.10;;
31798;SDS011;18374;51.136;3.502;2023-04-25T04:06:29;13.05;;;4.15;;
31798;SDS011;18374;51.136;3.502;2023-04-25T04:09:03;12.10;;;3.70;;
31798;SDS011;18374;51.136;3.502;2023-04-25T04:11:36;13.05;;;3.70;;
31798;SDS011;18374;51.136;3.502;2023-04-25T04:14:06;16.33;;;3.67;;
31798;SDS011;18374;51.136;3.502;2023-04-25T04:16:39;8.57;;;2.90;;
31798;SDS011;18374;51.136;3.502;2023-04-25T04:19:08;8.75;;;3.00;;
31798;SDS011;18374;51.136;3.502;2023-04-25T04:21:38;9.30;;;2.97;;
31798;SDS011;18374;51.136;3.502;2023-04-25T04:24:06;12.25;;;3.25;;
31798;SDS011;18374;51.136;3.502;2023-04-25T04:26:46;15.90;;;3.20;;
31798;SDS011;18374;51.136;3.502;2023-04-25T04:29:43;12.50;;;3.58;;
31798;SDS011;18374;51.136;3.502;2023-04-25T04:32:22;8.40;;;2.58;;
31798;SDS011;18374;51.136;3.502;2023-04-25T04:34:51;9.82;;;2.47;;
31798;SDS011;18374;51.136;3.502;2023-04-25T04:37:23;8.68;;;2.65;;
31798;SDS011;18374;51.136;3.502;2023-04-25T04:39:51;11.57;;;2.65;;
31798;SDS011;18374;51.136;3.502;2023-04-25T04:42:30;11.75;;;2.88;;
31798;SDS011;18374;51.136;3.502;2023-04-25T04:45:08;20.85;;;2.67;;
31798;SDS011;18374;51.136;3.502;2023-04-25T04:48:00;13.07;;;2.97;;
31798;SDS011;18374;51.136;3.502;2023-04-25T04:50:33;11.98;;;3.00;;
31798;SDS011;18374;51.136;3.502;2023-04-25T04:53:31;10.10;;;2.67;;
31798;SDS011;18374;51.136;3.502;2023-04-25T04:56:22;11.50;;;2.53;;
31798;SDS011;18374;51.136;3.502;2023-04-25T04:59:13;9.52;;;2.88;;
31798;SDS011;18374;51.136;3.502;2023-04-25T05:02:00;7.63;;;2.33;;
31798;SDS011;18374;51.136;3.502;2023-04-25T05:04:46;10.80;;;2.95;;
31798;SDS011;18374;51.136;3.502;2023-04-25T05:07:46;12.32;;;2.50;;
31798;SDS011;18374;51.136;3.502;2023-04-25T05:10:37;12.48;;;2.58;;
31798;SDS011;18374;51.136;3.502;2023-04-25T05:13:21;8.13;;;2.30;;
31798;SDS011;18374;51.136;3.502;2023-04-25T05:16:02;13.63;;;2.17;;
31798;SDS011;18374;51.136;3.502;2023-04-25T05:18:48;7.28;;;2.38;;
31798;SDS011;18374;51.136;3.502;2023-04-25T05:21:52;8.93;;;2.63;;
31798;SDS011;18374;51.136;3.502;2023-04-25T05:24:31;13.05;;;2.67;;
31798;SDS011;18374;51.136;3.502;2023-04-25T05:27:23;12.25;;;3.17;;
31798;SDS011;18374;51.136;3.502;2023-04-25T05:30:23;11.90;;;2.42;;
31798;SDS011;18374;51.136;3.502;2023-04-25T05:32:59;8.95;;;2.20;;
31798;SDS011;18374;51.136;3.502;2023-04-25T05:35:28;11.27;;;2.38;;
31798;SDS011;18374;51.136;3.502;2023-04-25T05:37:57;10.50;;;2.75;;
31798;SDS011;18374;51.136;3.502;2023-04-25T05:43:17;11.20;;;1.98;;
31798;SDS011;18374;51.136;3.502;2023-04-25T05:46:01;11.15;;;2.65;;
31798;SDS011;18374;51.136;3.502;2023-04-25T05:48:36;9.98;;;2.08;;
31798;SDS011;18374;51.136;3.502;2023-04-25T05:51:24;9.55;;;2.60;;
31798;SDS011;18374;51.136;3.502;2023-04-25T05:54:11;11.43;;;2.35;;
31798;SDS011;18374;51.136;3.502;2023-04-25T05:56:39;8.30;;;1.95;;
31798;SDS011;18374;51.136;3.502;2023-04-25T05:59:07;10.80;;;1.85;;
31798;SDS011;18374;51.136;3.502;2023-04-25T06:01:35;12.10;;;1.73;;
31798;SDS011;18374;51.136;3.502;2023-04-25T06:04:03;6.10;;;1.85;;
31798;SDS011;18374;51.136;3.502;2023-04-25T06:06:33;7.22;;;2.20;;
31798;SDS011;18374;51.136;3.502;2023-04-25T06:09:00;14.13;;;2.50;;
31798;SDS011;18374;51.136;3.502;2023-04-25T06:11:30;9.23;;;1.92;;
31798;SDS011;18374;51.136;3.502;2023-04-25T06:13:58;12.27;;;1.95;;
31798;SDS011;18374;51.136;3.502;2023-04-25T06:16:27;6.63;;;2.15;;
31798;SDS011;18374;51.136;3.502;2023-04-25T06:18:54;8.73;;;2.03;;
31798;SDS011;18374;51.136;3.502;2023-04-25T06:21:22;11.00;;;2.50;;
31798;SDS011;18374;51.136;3.502;2023-04-25T06:23:51;10.38;;;1.70;;
31798;SDS011;18374;51.136;3.502;2023-04-25T06:26:21;5.47;;;1.52;;
31798;SDS011;18374;51.136;3.502;2023-04-25T06:28:49;11.48;;;1.92;;
31798;SDS011;18374;51.136;3.502;2023-04-25T06:31:17;8.02;;;1.80;;
31798;SDS011;18374;51.136;3.502;2023-04-25T06:33:47;8.07;;;2.08;;
31798;SDS011;18374;51.136;3.502;2023-04-25T06:36:16;8.57;;;1.85;;
31798;SDS011;18374;51.136;3.502;2023-04-25T06:38:46;10.65;;;1.83;;
31798;SDS011;18374;51.136;3.502;2023-04-25T06:41:15;9.43;;;1.60;;
31798;SDS011;18374;51.136;3.502;2023-04-25T06:43:42;10.98;;;1.77;;
31798;SDS011;18374;51.136;3.502;2023-04-25T06:46:28;13.40;;;1.85;;
31798;SDS011;18374;51.136;3.502;2023-04-25T06:48:58;9.02;;;1.75;;
31798;SDS011;18374;51.136;3.502;2023-04-25T06:51:26;9.43;;;1.50;;
31798;SDS011;18374;51.136;3.502;2023-04-25T06:53:56;8.93;;;1.90;;
31798;SDS011;18374;51.136;3.502;2023-04-25T06:56:38;10.25;;;1.45;;
31798;SDS011;18374;51.136;3.502;2023-04-25T06:59:11;6.93;;;1.60;;
31798;SDS011;18374;51.136;3.502;2023-04-25T07:01:40;10.15;;;1.95;;
31798;SDS011;18374;51.136;3.502;2023-04-25T07:04:14;10.32;;;2.13;;
31798;SDS011;18374;51.136;3.502;2023-04-25T07:06:48;7.28;;;1.40;;
31798;SDS011;18374;51.136;3.502;2023-04-25T07:09:20;6.68;;;2.33;;
31798;SDS011;18374;51.136;3.502;2023-04-25T07:11:49;10.68;;;1.80;;
31798;SDS011;18374;51.136;3.502;2023-04-25T07:14:17;9.60;;;1.65;;
31798;SDS011;18374;51.136;3.502;2023-04-25T07:16:45;8.55;;;1.50;;
31798;SDS011;18374;51.136;3.502;2023-04-25T07:19:13;7.65;;;1.50;;
31798;SDS011;18374;51.136;3.502;2023-04-25T07:21:41;5.70;;;1.10;;
31798;SDS011;18374;51.136;3.502;2023-04-25T07:24:10;6.05;;;1.40;;
31798;SDS011;18374;51.136;3.502;2023-04-25T07:26:43;7.05;;;1.40;;
31798;SDS011;18374;51.136;3.502;2023-04-25T07:29:21;8.50;;;1.58;;
31798;SDS011;18374;51.136;3.502;2023-04-25T07:31:51;11.05;;;1.92;;
31798;SDS011;18374;51.136;3.502;2023-04-25T07:34:21;8.20;;;1.38;;
31798;SDS011;18374;51.136;3.502;2023-04-25T07:36:48;11.02;;;1.42;;
31798;SDS011;18374;51.136;3.502;2023-04-25T07:39:16;5.80;;;1.70;;
31798;SDS011;18374;51.136;3.502;2023-04-25T07:41:44;7.72;;;1.42;;
31798;SDS011;18374;51.136;3.502;2023-04-25T07:44:18;8.95;;;1.15;;
31798;SDS011;18374;51.136;3.502;2023-04-25T07:46:46;6.70;;;1.30;;
31798;SDS011;18374;51.136;3.502;2023-04-25T07:49:14;10.75;;;1.60;;
31798;SDS011;18374;51.136;3.502;2023-04-25T07:51:44;7.03;;;1.42;;
31798;SDS011;18374;51.136;3.502;2023-04-25T07:54:15;8.43;;;1.70;;
31798;SDS011;18374;51.136;3.502;2023-04-25T07:56:49;4.43;;;1.20;;
31798;SDS011;18374;51.136;3.502;2023-04-25T07:59:24;10.52;;;1.33;;
31798;SDS011;18374;51.136;3.502;2023-04-25T08:01:56;9.57;;;1.70;;
31798;SDS011;18374;51.136;3.502;2023-04-25T08:04:25;4.80;;;1.35;;
31798;SDS011;18374;51.136;3.502;2023-04-25T08:06:57;7.75;;;1.02;;
31798;SDS011;18374;51.136;3.502;2023-04-25T08:09:29;7.03;;;1.13;;
31798;SDS011;18374;51.136;3.502;2023-04-25T08:12:04;8.70;;;1.58;;
31798;SDS011;18374;51.136;3.502;2023-04-25T08:14:33;9.00;;;1.58;;
31798;SDS011;18374;51.136;3.502;2023-04-25T08:17:05;5.45;;;1.40;;
31798;SDS011;18374;51.136;3.502;2023-04-25T08:19:38;3.47;;;0.93;;
31798;SDS011;18374;51.136;3.502;2023-04-25T08:22:09;6.38;;;1.42;;
31798;SDS011;18374;51.136;3.502;2023-04-25T08:24:47;6.25;;;1.33;;
31798;SDS011;18374;51.136;3.502;2023-04-25T08:27:17;5.93;;;1.48;;
31798;SDS011;18374;51.136;3.502;2023-04-25T08:29:46;2.63;;;0.98;;
31798;SDS011;18374;51.136;3.502;2023-04-25T08:32:14;2.17;;;0.98;;
31798;SDS011;18374;51.136;3.502;2023-04-25T08:34:54;4.15;;;1.42;;
31798;SDS011;18374;51.136;3.502;2023-04-25T08:37:22;6.60;;;1.45;;
31798;SDS011;18374;51.136;3.502;2023-04-25T08:39:56;5.05;;;1.35;;
31798;SDS011;18374;51.136;3.502;2023-04-25T08:42:23;7.15;;;1.23;;
31798;SDS011;18374;51.136;3.502;2023-04-25T08:44:54;6.25;;;1.17;;
31798;SDS011;18374;51.136;3.502;2023-04-25T08:47:28;7.18;;;1.42;;
31798;SDS011;18374;51.136;3.502;2023-04-25T08:49:59;4.93;;;1.30;;
31798;SDS011;18374;51.136;3.502;2023-04-25T08:52:32;7.97;;;1.80;;
31798;SDS011;18374;51.136;3.502;2023-04-25T08:55:05;2.60;;;1.00;;
31798;SDS011;18374;51.136;3.502;2023-04-25T08:57:37;7.45;;;1.50;;
31798;SDS011;18374;51.136;3.502;2023-04-25T09:00:10;4.22;;;1.48;;
31798;SDS011;18374;51.136;3.502;2023-04-25T09:02:46;3.60;;;1.20;;
31798;SDS011;18374;51.136;3.502;2023-04-25T09:05:14;7.07;;;1.60;;
31798;SDS011;18374;51.136;3.502;2023-04-25T09:07:44;6.30;;;1.10;;
31798;SDS011;18374;51.136;3.502;2023-04-25T09:10:12;6.40;;;1.48;;
31798;SDS011;18374;51.136;3.502;2023-04-25T09:12:40;4.22;;;1.10;;
31798;SDS011;18374;51.136;3.502;2023-04-25T09:15:09;3.10;;;1.25;;
31798;SDS011;18374;51.136;3.502;2023-04-25T09:18:11;5.20;;;1.58;;
31798;SDS011;18374;51.136;3.502;2023-04-25T09:20:43;6.13;;;1.15;;
31798;SDS011;18374;51.136;3.502;2023-04-25T09:23:14;3.80;;;1.25;;
31798;SDS011;18374;51.136;3.502;2023-04-25T09:25:42;3.35;;;1.17;;
31798;SDS011;18374;51.136;3.502;2023-04-25T09:28:10;5.93;;;1.20;;
31798;SDS011;18374;51.136;3.502;2023-04-25T09:30:38;4.53;;;1.20;;
31798;SDS011;18374;51.136;3.502;2023-04-25T09:33:12;5.20;;;1.42;;
31798;SDS011;18374;51.136;3.502;2023-04-25T09:35:45;9.98;;;1.10;;
31798;SDS011;18374;51.136;3.502;2023-04-25T09:38:31;6.23;;;1.00;;
31798;SDS011;18374;51.136;3.502;2023-04-25T09:41:15;2.67;;;0.60;;
31798;SDS011;18374;51.136;3.502;2023-04-25T09:43:52;1.67;;;0.70;;
31798;SDS011;18374;51.136;3.502;2023-04-25T09:46:34;6.72;;;0.98;;
31798;SDS011;18374;51.136;3.502;2023-04-25T09:49:07;5.82;;;0.98;;
31798;SDS011;18374;51.136;3.502;2023-04-25T09:52:01;3.13;;;1.25;;
31798;SDS011;18374;51.136;3.502;2023-04-25T09:55:07;2.05;;;0.80;;
31798;SDS011;18374;51.136;3.502;2023-04-25T09:57:35;4.75;;;0.90;;
31798;SDS011;18374;51.136;3.502;2023-04-25T10:00:07;4.47;;;1.02;;
31798;SDS011;18374;51.136;3.502;2023-04-25T10:02:42;5.95;;;1.20;;
31798;SDS011;18374;51.136;3.502;2023-04-25T10:05:22;5.25;;;1.00;;
31798;SDS011;18374;51.136;3.502;2023-04-25T10:07:53;4.32;;;1.23;;
31798;SDS011;18374;51.136;3.502;2023-04-25T10:10:22;6.03;;;1.30;;
31798;SDS011;18374;51.136;3.502;2023-04-25T10:12:53;4.10;;;1.17;;
31798;SDS011;18374;51.136;3.502;2023-04-25T10:15:21;7.20;;;1.17;;
31798;SDS011;18374;51.136;3.502;2023-04-25T10:17:50;5.32;;;0.85;;
31798;SDS011;18374;51.136;3.502;2023-04-25T10:20:18;8.40;;;1.35;;
31798;SDS011;18374;51.136;3.502;2023-04-25T10:22:46;4.78;;;1.15;;
31798;SDS011;18374;51.136;3.502;2023-04-25T10:25:15;7.43;;;1.23;;
31798;SDS011;18374;51.136;3.502;2023-04-25T10:27:43;2.58;;;0.82;;
31798;SDS011;18374;51.136;3.502;2023-04-25T10:30:15;7.70;;;1.60;;
31798;SDS011;18374;51.136;3.502;2023-04-25T10:32:44;10.52;;;0.90;;
31798;SDS011;18374;51.136;3.502;2023-04-25T10:35:16;5.80;;;1.20;;
31798;SDS011;18374;51.136;3.502;2023-04-25T10:37:56;2.35;;;1.02;;
31798;SDS011;18374;51.136;3.502;2023-04-25T10:40:36;6.30;;;1.15;;
31798;SDS011;18374;51.136;3.502;2023-04-25T10:46:02;6.78;;;1.30;;
31798;SDS011;18374;51.136;3.502;2023-04-25T10:48:56;9.27;;;1.13;;
31798;SDS011;18374;51.136;3.502;2023-04-25T10:51:26;5.10;;;1.40;;
31798;SDS011;18374;51.136;3.502;2023-04-25T10:54:09;4.65;;;1.15;;
31798;SDS011;18374;51.136;3.502;2023-04-25T10:56:40;7.80;;;1.27;;
31798;SDS011;18374;51.136;3.502;2023-04-25T11:01:47;4.18;;;1.15;;
31798;SDS011;18374;51.136;3.502;2023-04-25T11:04:38;5.80;;;1.02;;
31798;SDS011;18374;51.136;3.502;2023-04-25T11:07:22;5.60;;;0.93;;
31798;SDS011;18374;51.136;3.502;2023-04-25T11:10:31;4.50;;;1.17;;
31798;SDS011;18374;51.136;3.502;2023-04-25T11:13:04;5.35;;;0.82;;
31798;SDS011;18374;51.136;3.502;2023-04-25T11:15:32;5.40;;;0.95;;
31798;SDS011;18374;51.136;3.502;2023-04-25T11:18:00;7.80;;;1.30;;
31798;SDS011;18374;51.136;3.502;2023-04-25T11:20:28;6.68;;;0.90;;
31798;SDS011;18374;51.136;3.502;2023-04-25T11:22:59;6.55;;;1.15;;
31798;SDS011;18374;51.136;3.502;2023-04-25T11:25:27;3.78;;;0.90;;
31798;SDS011;18374;51.136;3.502;2023-04-25T11:27:57;3.92;;;0.60;;
31798;SDS011;18374;51.136;3.502;2023-04-25T11:30:27;5.57;;;1.20;;
31798;SDS011;18374;51.136;3.502;2023-04-25T11:32:57;8.20;;;1.33;;
31798;SDS011;18374;51.136;3.502;2023-04-25T11:35:25;5.97;;;1.05;;
31798;SDS011;18374;51.136;3.502;2023-04-25T11:37:53;3.35;;;1.30;;
31798;SDS011;18374;51.136;3.502;2023-04-25T11:40:21;4.65;;;1.20;;
31798;SDS011;18374;51.136;3.502;2023-04-25T11:42:49;4.75;;;1.17;;
31798;SDS011;18374;51.136;3.502;2023-04-25T11:45:20;5.88;;;1.27;;
31798;SDS011;18374;51.136;3.502;2023-04-25T11:47:50;4.78;;;1.00;;
31798;SDS011;18374;51.136;3.502;2023-04-25T11:50:18;8.30;;;1.30;;
31798;SDS011;18374;51.136;3.502;2023-04-25T11:52:47;5.00;;;1.15;;
31798;SDS011;18374;51.136;3.502;2023-04-25T11:55:16;5.70;;;1.35;;
31798;SDS011;18374;51.136;3.502;2023-04-25T11:57:47;5.63;;;1.23;;
31798;SDS011;18374;51.136;3.502;2023-04-25T12:00:19;2.25;;;0.95;;
31798;SDS011;18374;51.136;3.502;2023-04-25T12:02:53;8.00;;;1.38;;
31798;SDS011;18374;51.136;3.502;2023-04-25T12:05:27;6.18;;;1.88;;
31798;SDS011;18374;51.136;3.502;2023-04-25T12:08:13;6.97;;;1.63;;
31798;SDS011;18374;51.136;3.502;2023-04-25T12:10:43;4.45;;;1.13;;
31798;SDS011;18374;51.136;3.502;2023-04-25T12:13:23;3.85;;;1.10;;
31798;SDS011;18374;51.136;3.502;2023-04-25T12:15:55;9.38;;;1.33;;
31798;SDS011;18374;51.136;3.502;2023-04-25T12:18:24;6.70;;;1.33;;
31798;SDS011;18374;51.136;3.502;2023-04-25T12:20:55;4.70;;;1.10;;
31798;SDS011;18374;51.136;3.502;2023-04-25T12:23:26;4.70;;;1.10;;
31798;SDS011;18374;51.136;3.502;2023-04-25T12:25:55;3.63;;;1.17;;
31798;SDS011;18374;51.136;3.502;2023-04-25T12:28:24;4.65;;;1.00;;
31798;SDS011;18374;51.136;3.502;2023-04-25T12:30:55;6.93;;;1.52;;
31798;SDS011;18374;51.136;3.502;2023-04-25T12:33:32;4.38;;;0.95;;
31798;SDS011;18374;51.136;3.502;2023-04-25T12:36:05;4.20;;;1.10;;
31798;SDS011;18374;51.136;3.502;2023-04-25T12:38:39;3.83;;;0.90;;
31798;SDS011;18374;51.136;3.502;2023-04-25T12:41:09;6.38;;;1.08;;
31798;SDS011;18374;51.136;3.502;2023-04-25T12:43:36;6.95;;;1.20;;
31798;SDS011;18374;51.136;3.502;2023-04-25T12:46:04;10.07;;;1.40;;
31798;SDS011;18374;51.136;3.502;2023-04-25T12:48:32;4.97;;;1.00;;
31798;SDS011;18374;51.136;3.502;2023-04-25T12:51:00;8.15;;;1.48;;
31798;SDS011;18374;51.136;3.502;2023-04-25T12:53:28;6.82;;;1.40;;
31798;SDS011;18374;51.136;3.502;2023-04-25T12:55:55;8.48;;;1.63;;
31798;SDS011;18374;51.136;3.502;2023-04-25T12:58:24;6.97;;;1.83;;
31798;SDS011;18374;51.136;3.502;2023-04-25T13:00:52;5.18;;;1.20;;
31798;SDS011;18374;51.136;3.502;2023-04-25T13:03:20;4.65;;;1.02;;
31798;SDS011;18374;51.136;3.502;2023-04-25T13:05:49;6.22;;;1.27;;
31798;SDS011;18374;51.136;3.502;2023-04-25T13:08:19;6.22;;;1.13;;
31798;SDS011;18374;51.136;3.502;2023-04-25T13:10:47;6.70;;;1.13;;
31798;SDS011;18374;51.136;3.502;2023-04-25T13:13:15;8.43;;;1.45;;
31798;SDS011;18374;51.136;3.502;2023-04-25T13:15:43;6.20;;;1.05;;
31798;SDS011;18374;51.136;3.502;2023-04-25T13:18:11;2.05;;;0.93;;
31798;SDS011;18374;51.136;3.502;2023-04-25T13:20:39;3.45;;;1.00;;
31798;SDS011;18374;51.136;3.502;2023-04-25T13:23:07;3.30;;;0.90;;
31798;SDS011;18374;51.136;3.502;2023-04-25T13:25:35;3.47;;;0.98;;
31798;SDS011;18374;51.136;3.502;2023-04-25T13:28:02;5.82;;;0.90;;
31798;SDS011;18374;51.136;3.502;2023-04-25T13:30:40;2.72;;;0.82;;
31798;SDS011;18374;51.136;3.502;2023-04-25T13:33:08;3.35;;;0.88;;
31798;SDS011;18374;51.136;3.502;2023-04-25T13:35:37;4.88;;;1.20;;
31798;SDS011;18374;51.136;3.502;2023-04-25T13:38:05;4.80;;;0.88;;
31798;SDS011;18374;51.136;3.502;2023-04-25T13:40:33;2.50;;;0.80;;
31798;SDS011;18374;51.136;3.502;2023-04-25T13:43:01;5.70;;;1.20;;
31798;SDS011;18374;51.136;3.502;2023-04-25T13:45:29;7.32;;;1.48;;
31798;SDS011;18374;51.136;3.502;2023-04-25T13:47:59;5.03;;;1.00;;
31798;SDS011;18374;51.136;3.502;2023-04-25T13:50:27;6.47;;;1.45;;
31798;SDS011;18374;51.136;3.502;2023-04-25T13:52:56;4.70;;;1.08;;
31798;SDS011;18374;51.136;3.502;2023-04-25T13:55:25;6.47;;;1.17;;
31798;SDS011;18374;51.136;3.502;2023-04-25T13:57:53;4.93;;;1.33;;
31798;SDS011;18374;51.136;3.502;2023-04-25T14:00:21;4.15;;;0.80;;
31798;SDS011;18374;51.136;3.502;2023-04-25T14:02:49;6.63;;;1.30;;
31798;SDS011;18374;51.136;3.502;2023-04-25T14:05:17;4.45;;;1.17;;
31798;SDS011;18374;51.136;3.502;2023-04-25T14:07:45;6.97;;;1.25;;
31798;SDS011;18374;51.136;3.502;2023-04-25T14:10:13;2.22;;;1.00;;
31798;SDS011;18374;51.136;3.502;2023-04-25T14:12:40;3.90;;;0.90;;
31798;SDS011;18374;51.136;3.502;2023-04-25T14:15:08;5.80;;;1.20;;
31798;SDS011;18374;51.136;3.502;2023-04-25T14:17:36;11.55;;;1.95;;
31798;SDS011;18374;51.136;3.502;2023-04-25T14:20:05;7.60;;;1.30;;
31798;SDS011;18374;51.136;3.502;2023-04-25T14:22:34;5.20;;;1.75;;
31798;SDS011;18374;51.136;3.502;2023-04-25T14:25:02;3.90;;;1.00;;
31798;SDS011;18374;51.136;3.502;2023-04-25T14:27:30;4.07;;;1.20;;
31798;SDS011;18374;51.136;3.502;2023-04-25T14:29:58;5.15;;;0.90;;
31798;SDS011;18374;51.136;3.502;2023-04-25T14:32:26;4.55;;;1.50;;
31798;SDS011;18374;51.136;3.502;2023-04-25T14:34:54;3.65;;;1.02;;
31798;SDS011;18374;51.136;3.502;2023-04-25T14:37:22;4.93;;;0.98;;
31798;SDS011;18374;51.136;3.502;2023-04-25T14:39:49;6.35;;;1.25;;
31798;SDS011;18374;51.136;3.502;2023-04-25T14:42:17;5.10;;;0.95;;
31798;SDS011;18374;51.136;3.502;2023-04-25T14:44:45;4.72;;;0.90;;
31798;SDS011;18374;51.136;3.502;2023-04-25T14:47:13;4.43;;;1.00;;
31798;SDS011;18374;51.136;3.502;2023-04-25T14:49:42;6.22;;;1.15;;
31798;SDS011;18374;51.136;3.502;2023-04-25T14:52:11;6.28;;;1.00;;
31798;SDS011;18374;51.136;3.502;2023-04-25T14:54:38;3.00;;;1.00;;
31798;SDS011;18374;51.136;3.502;2023-04-25T14:57:07;2.70;;;0.90;;
31798;SDS011;18374;51.136;3.502;2023-04-25T14:59:35;2.88;;;0.90;;
31798;SDS011;18374;51.136;3.502;2023-04-25T15:02:02;4.20;;;1.08;;
31798;SDS011;18374;51.136;3.502;2023-04-25T15:04:31;2.15;;;0.77;;
31798;SDS011;18374;51.136;3.502;2023-04-25T15:07:01;2.85;;;0.98;;
31798;SDS011;18374;51.136;3.502;2023-04-25T15:09:29;7.70;;;1.00;;
31798;SDS011;18374;51.136;3.502;2023-04-25T15:11:57;4.07;;;1.17;;
31798;SDS011;18374;51.136;3.502;2023-04-25T15:14:25;5.78;;;1.25;;
31798;SDS011;18374;51.136;3.502;2023-04-25T15:16:53;3.33;;;1.05;;
31798;SDS011;18374;51.136;3.502;2023-04-25T15:19:21;4.93;;;1.35;;